Silver Peak Trail, Santa Catalina Island Weather observations

Data are for 10 minute period ending at time listed.
 Day   Time   Solar   Ave.   Ave.  Ave.  Vector    Max.   Stn.    Total
  of    of     Rad.   Air    Rel.  Wind   Wind     Wind   Baro.  Precip.
Year   Day            Temp.  Hum.  Speed  Dir.     Gust   Pres.         
2020   (PST)   W/m2    F      %     mph   deg.      mph    mb.     in.  
------------------------------------------------------------------------
 268    0:00    0.0    78   36.6     0      0.0     0.0    999.0   0.00  
 268    0:10    0.0    77   37.1     0      0.0     0.0    999.0   0.00  
 268    0:20    0.0    77   39.1     0      0.0     0.0    999.0   0.00  
 268    0:30    0.0    77   39.1     0      0.0     0.0    999.0   0.00  
 268    0:40    0.0    77   39.6     0      0.0     0.0    999.0   0.00  
 268    0:50    0.0    77   41.3     0      0.0     0.0    999.0   0.00  
 268    1:00    0.0    76   41.5     0      0.0     0.0    999.0   0.00  
 268    1:10    0.0    76   41.7     0      0.0     0.0    999.0   0.00  
 268    1:20    0.0    77   38.9     0      0.0     0.0    999.0   0.00  
 268    1:30    0.0    76   43.5     0      0.0     0.0    999.0   0.00  
 268    1:40    0.0    76   45.2     0      0.0     0.0    999.0   0.00  
 268    1:50    0.0    75   44.5     0      0.0     0.0    999.0   0.00  
 268    2:00    0.0    75   45.7     0      0.0     0.0    999.0   0.00  
 268    2:10    0.0    75   45.2     0      0.0     0.0    999.0   0.00  
 268    2:20    0.0    75   43.5     0      0.0     0.0    999.0   0.00  
 268    2:30    0.0    75   40.0     0      0.0     0.0    999.0   0.00  
 268    2:40    0.0    75   39.7     0      0.0     0.0    999.0   0.00  
 268    2:50    0.0    75   40.5     0      0.0     0.0    999.0   0.00  
 268    3:00    0.0    74   43.3     0      0.0     0.0    999.0   0.00  
 268    3:10    0.0    75   41.7     0      0.0     0.0    999.0   0.00  
 268    3:20    0.0    75   41.6     0      0.0     0.0    999.0   0.00  
 268    3:30    0.0    75   40.1     0      0.0     0.0    999.0   0.00  
 268    3:40    0.0    74   39.9     0      0.0     0.0    999.0   0.00  
 268    3:50    0.0    74   40.2     0      0.0     0.0    999.0   0.00  
 268    4:00    0.0    74   41.6     0      0.0     0.0    999.0   0.00  
 268    4:10    0.0    74   40.9     0      0.0     0.0    999.0   0.00  
 268    4:20    0.0    74   40.8     0      0.0     0.0    999.0   0.00  
 268    4:30    0.0    74   41.7     0      0.0     0.0    999.0   0.00  
 268    4:40    0.0    74   43.0     0      0.0     0.0    999.0   0.00  
 268    4:50    0.0    74   43.7     0      0.0     0.0    999.0   0.00  
 268    5:00    0.0    74   43.7     0      0.0     0.0    999.0   0.00  
 268    5:10    0.0    74   43.8     0      0.0     0.0    999.0   0.00  
 268    5:20    0.0    73   43.1     0      0.0     0.0    999.0   0.00  
 268    5:30    0.0    72   42.0     0      0.0     0.0    999.0   0.00  
 268    5:40    2.0    72   41.6     0      0.0     0.0    999.0   0.00  
 268    5:50    5.0    73   43.0     0      0.0     0.0    999.0   0.00  
 268    6:00   18.0    72   42.7     0      0.0     0.0    999.0   0.00  
 268    6:10   39.0    72   42.9     0      0.0     0.0    999.0   0.00  
 268    6:20   69.0    73   42.4     0      0.0     0.0    999.0   0.00  
 268    6:30  101.0    74   42.9     0      0.0     0.0    999.0   0.00  
 268    6:40  132.0    74   42.3     0      0.0     0.0    999.0   0.00  
 268    6:50  164.0    76   41.4     0      0.0     0.0    999.0   0.00  
 268    7:00  198.0    76   40.1     0      0.0     0.0    999.0   0.00  
 268    7:10  231.0    76   39.4     0      0.0     0.0    999.0   0.00  
 268    7:20  265.0    77   37.7     0      0.0     0.0    999.0   0.00  
 268    7:30  299.0    76   40.0     0      0.0     0.0    999.0   0.00  
 268    7:40  333.0    76   40.9     0      0.0     0.0    999.0   0.00  
 268    7:50  365.0    76   41.2     0      0.0     0.0    999.0   0.00  
 268    8:00  398.0    79   37.7     0      0.0     0.0    999.0   0.00  
 268    8:10  430.0    80   36.2     0      0.0     0.0    999.0   0.00  
 268    8:20  462.0    81   38.2     0      0.0     0.0    999.0   0.00  
 268    8:30  493.0    81   38.9     0      0.0     0.0    999.0   0.00  
 268    8:40  524.0    82   35.2     0      0.0     0.0    999.0   0.00  
 268    8:50  552.0    82   35.9     0      0.0     0.0    999.0   0.00  
 268    9:00  578.0    83   34.8     0      0.0     0.0    999.0   0.00  
 268    9:10  604.0    84   33.3     0      0.0     0.0    999.0   0.00  
 268    9:20  632.0    85   33.0     0      0.0     0.0    999.0   0.00  
 268    9:30  657.0    84   34.0     0      0.0     0.0    999.0   0.00  
 268    9:40  680.0    84   34.0     0      0.0     0.0    999.0   0.00  
 268    9:50  702.0    84   35.2     0      0.0     0.0    999.0   0.00  
 268   10:00  723.0    85   37.2     0      0.0     0.0    999.0   0.00  
 268   10:10  742.0    84   43.1     0      0.0     0.0    999.0   0.00  
 268   10:20  757.0    83   44.4     0      0.0     0.0    999.0   0.00  
 268   10:30  770.0    83   43.9     0      0.0     0.0    999.0   0.00  
 268   10:40  784.0    83   46.3     0      0.0     0.0    999.0   0.00  
 268   10:50  795.0    79   52.3     0      0.0     0.0    999.0   0.00  
 268   11:00  805.0    80   49.8     0      0.0     0.0    999.0   0.00  
 268   11:10  814.0    80   50.5     0      0.0     0.0    999.0   0.00  
 268   11:20  819.0    79   50.8     0      0.0     0.0    999.0   0.00  
 268   11:30  823.0    78   53.4     0      0.0     0.0    999.0   0.00  
 268   11:40  826.0    78   51.3     0      0.0     0.0    999.0   0.00  
 268   11:50  826.0    78   50.6     0      0.0     0.0    999.0   0.00  
 268   12:00  825.0    78   57.1     0      0.0     0.0    999.0   0.00  
 268   12:10  821.0    78   59.4     0      0.0     0.0    999.0   0.00  
 268   12:20  817.0    77   61.1     0      0.0     0.0    999.0   0.00  
 268   12:30  812.0    78   56.0     0      0.0     0.0    999.0   0.00  
 268   12:40  804.0    78   53.7     0      0.0     0.0    999.0   0.00  
 268   12:50  794.0    78   52.6     0      0.0     0.0    999.0   0.00  
 268   13:00  782.0    79   44.5     0      0.0     0.0    999.0   0.00  
 268   13:10  768.0    80   42.8     0      0.0     0.0    999.0   0.00  
 268   13:20  753.0    80   46.1     0      0.0     0.0    999.0   0.00  
 268   13:30  737.0    80   48.7     0      0.0     0.0    999.0   0.00  
 268   13:40  718.0    80   53.5     0      0.0     0.0    999.0   0.00  
 268   13:50  698.0    81   50.1     0      0.0     0.0    999.0   0.00  
 268   14:00  675.0    82   53.7     0      0.0     0.0    999.0   0.00  
 268   14:10  653.0    81   57.6     0      0.0     0.0    999.0   0.00  
 268   14:20  631.0    82   54.8     0      0.0     0.0    999.0   0.00  
 268   14:30  605.0    81   52.8     0      0.0     0.0    999.0   0.00  
 268   14:40  580.0    81   48.2     0      0.0     0.0    999.0   0.00  
 268   14:50  555.0    83   46.4     0      0.0     0.0    999.0   0.00  
 268   15:00  528.0    83   46.9     0      0.0     0.0    999.0   0.00  
 268   15:10  501.0    84   46.2     0      0.0     0.0    999.0   0.00  
 268   15:20  470.0    81   48.2     0      0.0     0.0    999.0   0.00  
 268   15:30  438.0    83   51.1     0      0.0     0.0    999.0   0.00  
 268   15:40  406.0    84   52.4     0      0.0     0.0    999.0   0.00  
 268   15:50  376.0    83   54.7     0      0.0     0.0    999.0   0.00  
 268   16:00  342.0    83   58.3     0      0.0     0.0    999.0   0.00  
 268   16:10  308.0    81   61.5     0      0.0     0.0    999.0   0.00  
 268   16:20  276.0    80   64.2     0      0.0     0.0    999.0   0.00  
 268   16:30  243.0    78   61.5     0      0.0     0.0    999.0   0.00  
 268   16:40  209.0    76   47.6     0      0.0     0.0    999.0   0.00  
 268   16:50  173.0    75   50.0     0      0.0     0.0    999.0   0.00  
 268   17:00  139.0    74   43.1     0      0.0     0.0    999.0   0.00  
 268   17:10  110.0    75   37.4     0      0.0     0.0    999.0   0.00  
 268   17:20   83.0    74   40.7     0      0.0     0.0    999.0   0.00  
 268   17:30   54.0    73   40.0     0      0.0     0.0    999.0   0.00  
 268   17:40   31.0    73   39.4     0      0.0     0.0    999.0   0.00  
 268   17:50   10.0    74   37.9     0      0.0     0.0    999.0   0.00  
 268   18:00    3.0    74   37.7     0      0.0     0.0    999.0   0.00  
 268   18:10    1.0    74   37.7     0      0.0     0.0    999.0   0.00  
 268   18:20    0.0    74   38.0     0      0.0     0.0    999.0   0.00  
 268   18:30    0.0    74   37.8     0      0.0     0.0    999.0   0.00  
 268   18:40    0.0    73   38.4     0      0.0     0.0    999.0   0.00  
 268   18:50    0.0    73   36.5     0      0.0     0.0    999.0   0.00  
 268   19:00    0.0    73   36.3     0      0.0     0.0    999.0   0.00  
 268   19:10    0.0    72   38.5     0      0.0     0.0    999.0   0.00  
 268   19:20    0.0    73   40.0     0      0.0     0.0    999.0   0.00  
 268   19:30    0.0    73   39.5     0      0.0     0.0    999.0   0.00  
 268   19:40    0.0    73   40.2     0      0.0     0.0    999.0   0.00  
 268   19:50    0.0    74   38.9     0      0.0     0.0    999.0   0.00  
 268   20:00    0.0    74   38.7     0      0.0     0.0    999.0   0.00  
 268   20:10    0.0    74   37.8     0      0.0     0.0    999.0   0.00  
 268   20:20    0.0    75   36.9     0      0.0     0.0    999.0   0.00  
 268   20:30    0.0    74   37.2     0      0.0     0.0    999.0   0.00  
 268   20:40    0.0    75   37.0     0      0.0     0.0    999.0   0.00  
 268   20:50    0.0    74   37.2     0      0.0     0.0    999.0   0.00  
 268   21:00    0.0    75   37.0     0      0.0     0.0    999.0   0.00  
 268   21:10    0.0    74   37.5     0      0.0     0.0    999.0   0.00  
 268   21:20    0.0    73   39.0     0      0.0     0.0    999.0   0.00  
 268   21:30    0.0    76   36.2     0      0.0     0.0    999.0   0.00  
 268   21:40    0.0    76   36.2     0      0.0     0.0    999.0   0.00  
 268   21:50    0.0    76   36.2     0      0.0     0.0    999.0   0.00  
 268   22:00    0.0    76   35.8     0      0.0     0.0    999.0   0.00  
 268   22:10    0.0    76   35.5     0      0.0     0.0    999.0   0.00  
 268   22:20    0.0    76   35.8     0      0.0     0.0    999.0   0.00  
 268   22:30    0.0    76   35.5     0      0.0     0.0    999.0   0.00  
 268   22:40    0.0    77   34.5     0      0.0     0.0    999.0   0.00  
 268   22:50    0.0    77   34.1     0      0.0     0.0    999.0   0.00  
 268   23:00    0.0    77   34.6     0      0.0     0.0    999.0   0.00  

Return to Silver Peak Trail graphs page.


Western Regional Climate Center,wrcc@dri.edu